sensor_id;sensor_type;location;lat;lon;timestamp;pressure;altitude;pressure_sealevel;temperature;humidity
32237;BME280;18726;44.732;10.550;2023-03-26T00:02:15;100626.66;;;11.29;100.00
32237;BME280;18726;44.732;10.550;2023-03-26T00:05:18;100628.34;;;11.34;100.00
32237;BME280;18726;44.732;10.550;2023-03-26T00:08:21;100626.84;;;11.36;100.00
32237;BME280;18726;44.732;10.550;2023-03-26T00:11:26;100632.41;;;11.24;100.00
32237;BME280;18726;44.732;10.550;2023-03-26T00:14:30;100628.09;;;11.23;100.00
32237;BME280;18726;44.732;10.550;2023-03-26T00:17:35;100632.66;;;11.19;100.00
32237;BME280;18726;44.732;10.550;2023-03-26T00:20:38;100633.34;;;11.16;100.00
32237;BME280;18726;44.732;10.550;2023-03-26T00:23:43;100633.53;;;11.23;100.00
32237;BME280;18726;44.732;10.550;2023-03-26T00:26:47;100629.50;;;11.17;100.00
32237;BME280;18726;44.732;10.550;2023-03-26T00:29:55;100634.16;;;11.16;100.00
32237;BME280;18726;44.732;10.550;2023-03-26T00:32:59;100625.09;;;11.12;100.00
32237;BME280;18726;44.732;10.550;2023-03-26T00:36:03;100624.25;;;10.93;100.00
32237;BME280;18726;44.732;10.550;2023-03-26T00:39:08;100629.75;;;10.96;100.00
32237;BME280;18726;44.732;10.550;2023-03-26T00:42:12;100635.25;;;11.00;100.00
32237;BME280;18726;44.732;10.550;2023-03-26T00:45:17;100632.84;;;10.95;100.00
32237;BME280;18726;44.732;10.550;2023-03-26T00:48:23;100636.31;;;10.79;100.00
32237;BME280;18726;44.732;10.550;2023-03-26T00:51:27;100635.09;;;10.93;100.00
32237;BME280;18726;44.732;10.550;2023-03-26T00:54:30;100638.53;;;10.90;100.00
32237;BME280;18726;44.732;10.550;2023-03-26T00:57:34;100629.56;;;10.89;100.00
32237;BME280;18726;44.732;10.550;2023-03-26T01:00:45;100620.00;;;10.79;100.00
32237;BME280;18726;44.732;10.550;2023-03-26T01:03:50;100614.22;;;10.81;100.00
32237;BME280;18726;44.732;10.550;2023-03-26T01:07:03;100602.13;;;10.78;100.00
32237;BME280;18726;44.732;10.550;2023-03-26T01:10:11;100597.19;;;10.68;100.00
32237;BME280;18726;44.732;10.550;2023-03-26T01:13:21;100593.69;;;10.52;100.00
32237;BME280;18726;44.732;10.550;2023-03-26T01:16:26;100602.97;;;10.51;100.00
32237;BME280;18726;44.732;10.550;2023-03-26T01:22:41;100600.78;;;10.57;100.00
32237;BME280;18726;44.732;10.550;2023-03-26T01:25:49;100598.59;;;10.62;100.00
32237;BME280;18726;44.732;10.550;2023-03-26T01:28:55;100608.06;;;10.68;100.00
32237;BME280;18726;44.732;10.550;2023-03-26T01:32:02;100595.91;;;10.78;100.00
32237;BME280;18726;44.732;10.550;2023-03-26T01:41:39;100590.03;;;11.07;100.00
32237;BME280;18726;44.732;10.550;2023-03-26T01:44:56;100580.69;;;11.40;100.00
32237;BME280;18726;44.732;10.550;2023-03-26T01:48:01;100580.94;;;11.50;100.00
32237;BME280;18726;44.732;10.550;2023-03-26T01:51:05;100576.31;;;11.70;100.00
32237;BME280;18726;44.732;10.550;2023-03-26T01:54:12;100590.56;;;11.64;100.00
32237;BME280;18726;44.732;10.550;2023-03-26T02:00:35;100585.00;;;11.41;100.00
32237;BME280;18726;44.732;10.550;2023-03-26T02:03:56;100592.81;;;11.42;100.00
32237;BME280;18726;44.732;10.550;2023-03-26T02:07:10;100582.53;;;11.36;100.00
32237;BME280;18726;44.732;10.550;2023-03-26T02:13:27;100587.47;;;10.99;100.00
32237;BME280;18726;44.732;10.550;2023-03-26T02:16:30;100579.63;;;10.94;100.00
32237;BME280;18726;44.732;10.550;2023-03-26T02:19:34;100583.38;;;10.89;100.00
32237;BME280;18726;44.732;10.550;2023-03-26T02:22:38;100577.41;;;10.83;100.00
32237;BME280;18726;44.732;10.550;2023-03-26T02:25:45;100571.97;;;10.68;100.00
32237;BME280;18726;44.732;10.550;2023-03-26T02:28:49;100567.75;;;10.70;100.00
32237;BME280;18726;44.732;10.550;2023-03-26T02:31:52;100565.66;;;10.64;100.00
32237;BME280;18726;44.732;10.550;2023-03-26T02:34:56;100562.81;;;10.16;100.00
32237;BME280;18726;44.732;10.550;2023-03-26T02:37:59;100564.44;;;9.77;100.00
32237;BME280;18726;44.732;10.550;2023-03-26T02:41:03;100558.59;;;9.63;100.00
32237;BME280;18726;44.732;10.550;2023-03-26T02:44:21;100564.16;;;9.95;100.00
32237;BME280;18726;44.732;10.550;2023-03-26T02:47:45;100561.06;;;10.36;100.00
32237;BME280;18726;44.732;10.550;2023-03-26T02:51:08;100560.22;;;10.79;100.00
32237;BME280;18726;44.732;10.550;2023-03-26T02:54:31;100563.28;;;11.09;100.00
32237;BME280;18726;44.732;10.550;2023-03-26T02:57:47;100563.84;;;11.34;100.00
32237;BME280;18726;44.732;10.550;2023-03-26T03:00:54;100563.28;;;11.25;100.00
32237;BME280;18726;44.732;10.550;2023-03-26T03:04:04;100563.75;;;10.96;100.00
32237;BME280;18726;44.732;10.550;2023-03-26T03:07:11;100563.16;;;10.43;100.00
32237;BME280;18726;44.732;10.550;2023-03-26T03:10:17;100572.44;;;9.86;100.00
32237;BME280;18726;44.732;10.550;2023-03-26T03:13:44;100568.91;;;9.33;100.00
32237;BME280;18726;44.732;10.550;2023-03-26T03:16:51;100568.47;;;9.07;100.00
32237;BME280;18726;44.732;10.550;2023-03-26T03:19:58;100563.75;;;9.04;100.00
32237;BME280;18726;44.732;10.550;2023-03-26T03:23:02;100570.16;;;8.99;100.00
32237;BME280;18726;44.732;10.550;2023-03-26T03:26:16;100571.19;;;8.95;100.00
32237;BME280;18726;44.732;10.550;2023-03-26T03:29:27;100573.91;;;8.95;100.00
32237;BME280;18726;44.732;10.550;2023-03-26T03:32:32;100558.41;;;9.32;100.00
32237;BME280;18726;44.732;10.550;2023-03-26T03:35:39;100560.00;;;9.33;100.00
32237;BME280;18726;44.732;10.550;2023-03-26T03:38:44;100565.28;;;9.54;100.00
32237;BME280;18726;44.732;10.550;2023-03-26T03:41:49;100558.38;;;9.96;100.00
32237;BME280;18726;44.732;10.550;2023-03-26T03:44:53;100558.94;;;10.30;100.00
32237;BME280;18726;44.732;10.550;2023-03-26T03:48:22;100569.25;;;9.96;100.00
32237;BME280;18726;44.732;10.550;2023-03-26T03:51:29;100556.78;;;10.07;100.00
32237;BME280;18726;44.732;10.550;2023-03-26T03:54:35;100567.28;;;10.37;100.00
32237;BME280;18726;44.732;10.550;2023-03-26T03:57:57;100562.75;;;10.72;100.00
32237;BME280;18726;44.732;10.550;2023-03-26T04:01:02;100561.19;;;10.87;100.00
32237;BME280;18726;44.732;10.550;2023-03-26T04:04:32;100576.28;;;9.85;100.00
32237;BME280;18726;44.732;10.550;2023-03-26T04:07:41;100577.97;;;9.37;100.00
32237;BME280;18726;44.732;10.550;2023-03-26T04:11:04;100573.41;;;9.66;100.00
32237;BME280;18726;44.732;10.550;2023-03-26T04:14:27;100572.53;;;9.37;100.00
32237;BME280;18726;44.732;10.550;2023-03-26T04:17:34;100569.47;;;9.91;100.00
32237;BME280;18726;44.732;10.550;2023-03-26T04:20:46;100563.78;;;10.08;100.00
32237;BME280;18726;44.732;10.550;2023-03-26T04:23:53;100557.47;;;10.04;100.00
32237;BME280;18726;44.732;10.550;2023-03-26T04:27:18;100570.28;;;9.52;100.00
32237;BME280;18726;44.732;10.550;2023-03-26T04:30:22;100565.25;;;9.78;100.00
32237;BME280;18726;44.732;10.550;2023-03-26T04:33:33;100552.94;;;9.68;100.00
32237;BME280;18726;44.732;10.550;2023-03-26T04:36:38;100556.91;;;9.99;100.00
32237;BME280;18726;44.732;10.550;2023-03-26T04:39:45;100557.97;;;9.82;100.00
32237;BME280;18726;44.732;10.550;2023-03-26T04:43:13;100568.09;;;9.97;100.00
32237;BME280;18726;44.732;10.550;2023-03-26T04:46:29;100549.31;;;10.32;100.00
32237;BME280;18726;44.732;10.550;2023-03-26T04:49:58;100555.09;;;10.31;100.00
32237;BME280;18726;44.732;10.550;2023-03-26T04:53:01;100536.63;;;10.08;100.00
32237;BME280;18726;44.732;10.550;2023-03-26T04:56:36;100555.22;;;9.54;100.00
32237;BME280;18726;44.732;10.550;2023-03-26T04:59:59;100541.06;;;9.73;100.00
32237;BME280;18726;44.732;10.550;2023-03-26T05:03:09;100545.38;;;9.62;100.00
32237;BME280;18726;44.732;10.550;2023-03-26T05:06:14;100543.53;;;9.78;100.00
32237;BME280;18726;44.732;10.550;2023-03-26T05:09:18;100529.22;;;9.93;100.00
32237;BME280;18726;44.732;10.550;2023-03-26T05:12:42;100545.97;;;10.11;100.00
32237;BME280;18726;44.732;10.550;2023-03-26T05:15:53;100533.97;;;10.24;100.00
32237;BME280;18726;44.732;10.550;2023-03-26T05:19:11;100541.00;;;10.13;100.00
32237;BME280;18726;44.732;10.550;2023-03-26T05:22:15;100540.59;;;10.39;100.00
32237;BME280;18726;44.732;10.550;2023-03-26T05:25:39;100537.94;;;10.27;100.00
32237;BME280;18726;44.732;10.550;2023-03-26T05:28:51;100537.59;;;10.44;100.00
32237;BME280;18726;44.732;10.550;2023-03-26T05:32:01;100537.84;;;11.02;100.00
32237;BME280;18726;44.732;10.550;2023-03-26T05:35:05;100550.00;;;11.94;100.00
32237;BME280;18726;44.732;10.550;2023-03-26T05:38:10;100556.03;;;12.45;100.00
32237;BME280;18726;44.732;10.550;2023-03-26T05:41:15;100554.34;;;12.60;100.00
32237;BME280;18726;44.732;10.550;2023-03-26T05:44:20;100561.25;;;12.76;100.00
32237;BME280;18726;44.732;10.550;2023-03-26T05:47:25;100568.38;;;13.57;100.00
32237;BME280;18726;44.732;10.550;2023-03-26T05:50:29;100566.44;;;15.02;100.00
32237;BME280;18726;44.732;10.550;2023-03-26T05:53:36;100579.81;;;16.70;92.95
32237;BME280;18726;44.732;10.550;2023-03-26T05:57:03;100593.50;;;18.53;85.21
32237;BME280;18726;44.732;10.550;2023-03-26T06:00:41;100583.38;;;19.39;77.31
32237;BME280;18726;44.732;10.550;2023-03-26T06:03:47;100586.13;;;19.02;74.77
32237;BME280;18726;44.732;10.550;2023-03-26T06:06:54;100575.00;;;17.73;84.47
32237;BME280;18726;44.732;10.550;2023-03-26T06:09:59;100579.94;;;18.83;78.97
32237;BME280;18726;44.732;10.550;2023-03-26T06:13:04;100575.47;;;20.16;68.88
32237;BME280;18726;44.732;10.550;2023-03-26T06:16:13;100576.00;;;20.35;69.95
32237;BME280;18726;44.732;10.550;2023-03-26T06:19:28;100573.13;;;19.43;76.58
32237;BME280;18726;44.732;10.550;2023-03-26T06:22:35;100571.31;;;18.15;72.23
32237;BME280;18726;44.732;10.550;2023-03-26T06:25:57;100566.47;;;16.75;78.91
32237;BME280;18726;44.732;10.550;2023-03-26T06:29:20;100563.63;;;15.46;86.17
32237;BME280;18726;44.732;10.550;2023-03-26T06:32:32;100568.78;;;15.00;100.00
32237;BME280;18726;44.732;10.550;2023-03-26T06:35:42;100563.72;;;14.58;100.00
32237;BME280;18726;44.732;10.550;2023-03-26T06:38:46;100556.84;;;14.71;100.00
32237;BME280;18726;44.732;10.550;2023-03-26T06:41:49;100549.28;;;15.05;88.99
32237;BME280;18726;44.732;10.550;2023-03-26T06:45:19;100540.53;;;15.43;86.59
32237;BME280;18726;44.732;10.550;2023-03-26T06:48:48;100543.22;;;15.29;98.64
32237;BME280;18726;44.732;10.550;2023-03-26T06:52:10;100549.66;;;15.03;92.87
32237;BME280;18726;44.732;10.550;2023-03-26T06:55:19;100548.25;;;14.72;94.47
32237;BME280;18726;44.732;10.550;2023-03-26T06:58:43;100536.78;;;14.23;93.93
32237;BME280;18726;44.732;10.550;2023-03-26T07:02:05;100540.75;;;14.29;100.00
32237;BME280;18726;44.732;10.550;2023-03-26T07:05:27;100541.50;;;15.10;100.00
32237;BME280;18726;44.732;10.550;2023-03-26T07:08:49;100540.19;;;15.48;100.00
32237;BME280;18726;44.732;10.550;2023-03-26T07:12:12;100539.03;;;15.53;98.11
32237;BME280;18726;44.732;10.550;2023-03-26T07:15:32;100537.19;;;15.68;92.18
32237;BME280;18726;44.732;10.550;2023-03-26T07:18:54;100548.13;;;15.68;98.21
32237;BME280;18726;44.732;10.550;2023-03-26T07:22:01;100547.72;;;15.59;95.73
32237;BME280;18726;44.732;10.550;2023-03-26T07:25:44;100552.28;;;15.44;100.00
32237;BME280;18726;44.732;10.550;2023-03-26T07:29:03;100538.50;;;15.33;100.00
32237;BME280;18726;44.732;10.550;2023-03-26T07:32:58;100545.28;;;14.92;96.78
32237;BME280;18726;44.732;10.550;2023-03-26T07:46:32;100506.75;;;14.63;100.00
32237;BME280;18726;44.732;10.550;2023-03-26T07:50:16;100505.78;;;14.04;100.00
32237;BME280;18726;44.732;10.550;2023-03-26T07:53:40;100497.97;;;14.03;100.00
32237;BME280;18726;44.732;10.550;2023-03-26T07:57:10;100504.19;;;13.70;100.00
32237;BME280;18726;44.732;10.550;2023-03-26T08:06:59;100481.91;;;14.82;100.00
32237;BME280;18726;44.732;10.550;2023-03-26T08:17:19;100472.75;;;16.06;100.00
32237;BME280;18726;44.732;10.550;2023-03-26T08:27:21;100499.50;;;18.06;92.77
32237;BME280;18726;44.732;10.550;2023-03-26T08:30:25;100480.50;;;20.17;80.41
32237;BME280;18726;44.732;10.550;2023-03-26T08:33:29;100470.19;;;18.44;87.55
32237;BME280;18726;44.732;10.550;2023-03-26T08:36:33;100458.25;;;17.05;98.45
32237;BME280;18726;44.732;10.550;2023-03-26T08:39:36;100451.75;;;17.79;92.51
32237;BME280;18726;44.732;10.550;2023-03-26T08:45:57;100445.03;;;19.28;82.93
32237;BME280;18726;44.732;10.550;2023-03-26T09:02:12;100458.22;;;21.81;69.00
32237;BME280;18726;44.732;10.550;2023-03-26T09:18:31;100408.84;;;22.32;72.53
32237;BME280;18726;44.732;10.550;2023-03-26T09:24:55;100407.25;;;20.63;74.31
32237;BME280;18726;44.732;10.550;2023-03-26T09:37:44;100396.34;;;19.79;79.97
32237;BME280;18726;44.732;10.550;2023-03-26T09:44:09;100395.44;;;19.89;80.77
32237;BME280;18726;44.732;10.550;2023-03-26T09:50:29;100393.91;;;19.23;84.29
32237;BME280;18726;44.732;10.550;2023-03-26T10:03:17;100368.81;;;18.43;86.69
32237;BME280;18726;44.732;10.550;2023-03-26T10:12:38;100352.44;;;18.73;83.72
32237;BME280;18726;44.732;10.550;2023-03-26T10:25:32;100327.34;;;18.23;85.42
32237;BME280;18726;44.732;10.550;2023-03-26T10:35:20;100300.50;;;17.93;90.04
32237;BME280;18726;44.732;10.550;2023-03-26T10:51:25;100279.34;;;19.03;86.73
32237;BME280;18726;44.732;10.550;2023-03-26T10:57:42;100256.28;;;18.55;89.45
32237;BME280;18726;44.732;10.550;2023-03-26T11:01:01;100269.97;;;18.66;85.07
32237;BME280;18726;44.732;10.550;2023-03-26T11:04:53;100260.31;;;18.81;85.08
32237;BME280;18726;44.732;10.550;2023-03-26T11:17:08;100276.19;;;21.43;72.16
32237;BME280;18726;44.732;10.550;2023-03-26T11:20:17;100277.75;;;21.28;71.29
32237;BME280;18726;44.732;10.550;2023-03-26T11:32:47;100239.53;;;20.28;71.46
32237;BME280;18726;44.732;10.550;2023-03-26T11:35:54;100229.88;;;20.59;71.81
32237;BME280;18726;44.732;10.550;2023-03-26T11:39:02;100211.78;;;20.78;72.87
32237;BME280;18726;44.732;10.550;2023-03-26T11:42:10;100221.44;;;20.27;73.37
32237;BME280;18726;44.732;10.550;2023-03-26T11:45:22;100191.31;;;20.36;72.86
32237;BME280;18726;44.732;10.550;2023-03-26T11:48:29;100210.22;;;20.77;70.40
32237;BME280;18726;44.732;10.550;2023-03-26T11:54:37;100185.69;;;21.64;58.14
32237;BME280;18726;44.732;10.550;2023-03-26T11:57:43;100177.28;;;21.02;61.49
32237;BME280;18726;44.732;10.550;2023-03-26T12:00:48;100175.25;;;21.22;58.08
32237;BME280;18726;44.732;10.550;2023-03-26T12:04:07;100163.03;;;21.69;57.24
32237;BME280;18726;44.732;10.550;2023-03-26T12:10:25;100166.56;;;21.85;53.90
32237;BME280;18726;44.732;10.550;2023-03-26T12:13:37;100166.34;;;21.64;52.25
32237;BME280;18726;44.732;10.550;2023-03-26T12:16:55;100157.22;;;21.34;52.28
32237;BME280;18726;44.732;10.550;2023-03-26T12:19:59;100144.56;;;21.17;52.54
32237;BME280;18726;44.732;10.550;2023-03-26T12:23:03;100142.69;;;21.46;52.99
32237;BME280;18726;44.732;10.550;2023-03-26T12:26:11;100132.13;;;21.09;54.78
32237;BME280;18726;44.732;10.550;2023-03-26T12:29:17;100117.91;;;20.78;56.35
32237;BME280;18726;44.732;10.550;2023-03-26T12:32:21;100115.75;;;21.02;55.46
32237;BME280;18726;44.732;10.550;2023-03-26T12:35:26;100100.63;;;21.39;55.52
32237;BME280;18726;44.732;10.550;2023-03-26T12:38:33;100096.56;;;21.43;54.35
32237;BME280;18726;44.732;10.550;2023-03-26T12:41:39;100091.06;;;21.11;55.97
32237;BME280;18726;44.732;10.550;2023-03-26T12:44:49;100096.94;;;20.97;56.49
32237;BME280;18726;44.732;10.550;2023-03-26T12:47:52;100088.50;;;21.04;58.36
32237;BME280;18726;44.732;10.550;2023-03-26T12:51:03;100088.63;;;20.80;58.17
32237;BME280;18726;44.732;10.550;2023-03-26T12:54:15;100070.88;;;20.81;57.98
32237;BME280;18726;44.732;10.550;2023-03-26T12:57:35;100055.66;;;20.41;58.41
32237;BME280;18726;44.732;10.550;2023-03-26T13:00:48;100062.31;;;20.60;58.64
32237;BME280;18726;44.732;10.550;2023-03-26T13:04:06;100057.91;;;20.46;58.49
32237;BME280;18726;44.732;10.550;2023-03-26T13:07:24;100050.56;;;20.55;59.46
32237;BME280;18726;44.732;10.550;2023-03-26T13:10:37;100044.38;;;20.51;57.93
32237;BME280;18726;44.732;10.550;2023-03-26T13:29:21;100007.91;;;20.60;62.04
32237;BME280;18726;44.732;10.550;2023-03-26T13:32:32;99998.22;;;20.84;59.36
32237;BME280;18726;44.732;10.550;2023-03-26T13:35:59;99999.69;;;20.89;57.23
32237;BME280;18726;44.732;10.550;2023-03-26T13:45:50;99974.81;;;21.21;68.80
32237;BME280;18726;44.732;10.550;2023-03-26T13:49:26;99979.81;;;21.68;69.32
32237;BME280;18726;44.732;10.550;2023-03-26T13:55:33;99971.59;;;22.32;66.75
32237;BME280;18726;44.732;10.550;2023-03-26T13:58:48;99961.84;;;22.40;67.59
32237;BME280;18726;44.732;10.550;2023-03-26T14:01:53;99952.78;;;22.39;66.60
32237;BME280;18726;44.732;10.550;2023-03-26T14:05:00;99946.25;;;22.33;66.25
32237;BME280;18726;44.732;10.550;2023-03-26T14:11:15;99937.41;;;22.13;66.39
32237;BME280;18726;44.732;10.550;2023-03-26T14:30:40;99858.72;;;20.35;76.65
32237;BME280;18726;44.732;10.550;2023-03-26T14:52:49;99813.63;;;20.99;77.50
32237;BME280;18726;44.732;10.550;2023-03-26T15:15:10;99785.28;;;20.41;81.38
32237;BME280;18726;44.732;10.550;2023-03-26T15:53:34;99802.38;;;17.35;100.00
32237;BME280;18726;44.732;10.550;2023-03-26T15:57:10;99811.38;;;17.09;100.00
32237;BME280;18726;44.732;10.550;2023-03-26T16:00:40;99804.31;;;16.77;100.00
32237;BME280;18726;44.732;10.550;2023-03-26T16:03:38;99792.63;;;16.73;100.00
32237;BME280;18726;44.732;10.550;2023-03-26T16:16:22;99815.94;;;16.10;100.00
32237;BME280;18726;44.732;10.550;2023-03-26T16:22:57;99824.78;;;15.80;100.00
32237;BME280;18726;44.732;10.550;2023-03-26T16:29:14;99823.69;;;15.67;100.00
32237;BME280;18726;44.732;10.550;2023-03-26T16:32:27;99828.50;;;15.41;100.00
32237;BME280;18726;44.732;10.550;2023-03-26T16:38:51;99826.66;;;15.24;100.00
32237;BME280;18726;44.732;10.550;2023-03-26T16:41:58;99833.72;;;15.18;100.00
32237;BME280;18726;44.732;10.550;2023-03-26T16:48:21;99809.63;;;14.84;100.00
32237;BME280;18726;44.732;10.550;2023-03-26T16:54:50;99824.91;;;14.71;100.00
32237;BME280;18726;44.732;10.550;2023-03-26T17:01:33;99826.91;;;14.39;100.00
32237;BME280;18726;44.732;10.550;2023-03-26T17:04:37;99822.22;;;14.25;100.00
32237;BME280;18726;44.732;10.550;2023-03-26T17:07:51;99803.88;;;14.18;100.00
32237;BME280;18726;44.732;10.550;2023-03-26T17:11:03;99827.28;;;14.19;100.00
32237;BME280;18726;44.732;10.550;2023-03-26T17:14:17;99835.13;;;14.14;100.00
32237;BME280;18726;44.732;10.550;2023-03-26T17:23:54;99934.94;;;13.94;100.00
32237;BME280;18726;44.732;10.550;2023-03-26T17:27:06;99957.94;;;13.75;100.00
32237;BME280;18726;44.732;10.550;2023-03-26T17:33:27;99932.03;;;13.37;100.00
32237;BME280;18726;44.732;10.550;2023-03-26T17:36:39;99922.28;;;13.32;100.00
32237;BME280;18726;44.732;10.550;2023-03-26T17:43:00;99856.63;;;12.93;100.00
32237;BME280;18726;44.732;10.550;2023-03-26T17:46:11;99739.97;;;12.37;100.00
32237;BME280;18726;44.732;10.550;2023-03-26T17:49:29;99664.50;;;11.72;100.00
32237;BME280;18726;44.732;10.550;2023-03-26T17:52:46;99735.16;;;11.65;100.00
32237;BME280;18726;44.732;10.550;2023-03-26T17:55:53;99734.66;;;11.96;100.00
32237;BME280;18726;44.732;10.550;2023-03-26T17:58:58;99729.28;;;12.03;100.00
32237;BME280;18726;44.732;10.550;2023-03-26T18:02:06;99738.47;;;11.88;100.00
32237;BME280;18726;44.732;10.550;2023-03-26T18:05:15;99742.09;;;11.59;100.00
32237;BME280;18726;44.732;10.550;2023-03-26T18:18:42;99785.13;;;11.83;100.00
32237;BME280;18726;44.732;10.550;2023-03-26T18:21:33;99781.66;;;11.90;100.00
32237;BME280;18726;44.732;10.550;2023-03-26T18:24:38;99780.09;;;11.89;100.00
32237;BME280;18726;44.732;10.550;2023-03-26T18:27:42;99781.38;;;12.02;100.00
32237;BME280;18726;44.732;10.550;2023-03-26T18:30:48;99794.88;;;11.91;100.00
32237;BME280;18726;44.732;10.550;2023-03-26T18:33:56;99788.34;;;11.99;100.00
32237;BME280;18726;44.732;10.550;2023-03-26T18:40:08;99783.72;;;12.03;100.00
32237;BME280;18726;44.732;10.550;2023-03-26T18:43:17;99771.59;;;11.97;100.00
32237;BME280;18726;44.732;10.550;2023-03-26T18:46:22;99766.50;;;11.92;100.00
32237;BME280;18726;44.732;10.550;2023-03-26T18:49:26;99773.41;;;11.79;100.00
32237;BME280;18726;44.732;10.550;2023-03-26T18:52:31;99772.78;;;11.56;100.00
32237;BME280;18726;44.732;10.550;2023-03-26T18:55:34;99786.22;;;11.38;100.00
32237;BME280;18726;44.732;10.550;2023-03-26T18:58:41;99785.31;;;11.23;100.00
32237;BME280;18726;44.732;10.550;2023-03-26T19:01:51;99786.69;;;11.10;100.00
32237;BME280;18726;44.732;10.550;2023-03-26T19:04:54;99784.31;;;11.05;100.00
32237;BME280;18726;44.732;10.550;2023-03-26T19:07:59;99771.75;;;10.93;100.00
32237;BME280;18726;44.732;10.550;2023-03-26T19:11:05;99777.75;;;10.76;100.00
32237;BME280;18726;44.732;10.550;2023-03-26T19:17:17;99767.47;;;10.59;100.00
32237;BME280;18726;44.732;10.550;2023-03-26T19:20:21;99752.78;;;10.63;100.00
32237;BME280;18726;44.732;10.550;2023-03-26T19:23:36;99750.47;;;10.65;100.00
32237;BME280;18726;44.732;10.550;2023-03-26T19:26:40;99726.81;;;10.66;100.00
32237;BME280;18726;44.732;10.550;2023-03-26T19:29:44;99707.81;;;10.66;100.00
32237;BME280;18726;44.732;10.550;2023-03-26T19:32:51;99703.09;;;10.63;100.00
32237;BME280;18726;44.732;10.550;2023-03-26T19:36:01;99694.59;;;10.64;100.00
32237;BME280;18726;44.732;10.550;2023-03-26T19:39:11;99700.03;;;10.64;100.00
32237;BME280;18726;44.732;10.550;2023-03-26T19:42:24;99692.66;;;10.65;100.00
32237;BME280;18726;44.732;10.550;2023-03-26T19:45:29;99696.13;;;10.62;100.00
32237;BME280;18726;44.732;10.550;2023-03-26T19:48:36;99688.66;;;10.89;100.00
32237;BME280;18726;44.732;10.550;2023-03-26T19:51:40;99686.78;;;10.96;100.00
32237;BME280;18726;44.732;10.550;2023-03-26T19:54:44;99692.63;;;11.42;100.00
32237;BME280;18726;44.732;10.550;2023-03-26T19:57:50;99711.13;;;11.70;100.00
32237;BME280;18726;44.732;10.550;2023-03-26T20:00:54;99713.56;;;11.79;100.00
32237;BME280;18726;44.732;10.550;2023-03-26T20:04:02;99713.34;;;11.58;100.00
32237;BME280;18726;44.732;10.550;2023-03-26T20:07:11;99707.13;;;11.54;100.00
32237;BME280;18726;44.732;10.550;2023-03-26T20:10:17;99708.78;;;11.69;100.00
32237;BME280;18726;44.732;10.550;2023-03-26T20:13:21;99706.56;;;11.78;100.00
32237;BME280;18726;44.732;10.550;2023-03-26T20:16:29;99711.69;;;11.94;100.00
32237;BME280;18726;44.732;10.550;2023-03-26T20:19:32;99714.50;;;12.04;100.00
32237;BME280;18726;44.732;10.550;2023-03-26T20:22:37;99713.22;;;11.91;100.00
32237;BME280;18726;44.732;10.550;2023-03-26T20:25:42;99705.63;;;11.63;100.00
32237;BME280;18726;44.732;10.550;2023-03-26T20:28:48;99697.97;;;11.76;100.00
32237;BME280;18726;44.732;10.550;2023-03-26T20:31:51;99688.94;;;11.68;100.00
32237;BME280;18726;44.732;10.550;2023-03-26T20:34:54;99678.19;;;11.35;100.00
32237;BME280;18726;44.732;10.550;2023-03-26T20:37:59;99677.34;;;11.24;100.00
32237;BME280;18726;44.732;10.550;2023-03-26T20:41:03;99662.66;;;11.35;100.00
32237;BME280;18726;44.732;10.550;2023-03-26T20:44:14;99677.41;;;11.34;100.00
32237;BME280;18726;44.732;10.550;2023-03-26T20:47:18;99709.00;;;11.05;100.00
32237;BME280;18726;44.732;10.550;2023-03-26T20:50:22;99705.03;;;10.96;100.00
32237;BME280;18726;44.732;10.550;2023-03-26T20:53:26;99708.28;;;11.12;100.00
32237;BME280;18726;44.732;10.550;2023-03-26T20:56:30;99700.66;;;11.28;100.00
32237;BME280;18726;44.732;10.550;2023-03-26T20:59:34;99687.72;;;11.59;100.00
32237;BME280;18726;44.732;10.550;2023-03-26T21:02:38;99683.16;;;11.73;100.00
32237;BME280;18726;44.732;10.550;2023-03-26T21:05:41;99682.16;;;11.44;100.00
32237;BME280;18726;44.732;10.550;2023-03-26T21:08:45;99706.56;;;10.93;100.00
32237;BME280;18726;44.732;10.550;2023-03-26T21:12:05;99691.94;;;11.08;100.00
32237;BME280;18726;44.732;10.550;2023-03-26T21:15:10;99676.66;;;11.37;100.00
32237;BME280;18726;44.732;10.550;2023-03-26T21:18:13;99682.84;;;11.34;100.00
32237;BME280;18726;44.732;10.550;2023-03-26T21:24:43;99670.66;;;10.13;100.00
32237;BME280;18726;44.732;10.550;2023-03-26T21:28:03;99674.22;;;9.65;100.00
32237;BME280;18726;44.732;10.550;2023-03-26T21:31:13;99677.22;;;9.33;100.00
32237;BME280;18726;44.732;10.550;2023-03-26T21:34:18;99675.53;;;9.02;100.00
32237;BME280;18726;44.732;10.550;2023-03-26T21:37:22;99664.41;;;9.07;100.00
32237;BME280;18726;44.732;10.550;2023-03-26T21:40:25;99670.09;;;9.25;100.00
32237;BME280;18726;44.732;10.550;2023-03-26T21:43:30;99667.94;;;9.34;100.00
32237;BME280;18726;44.732;10.550;2023-03-26T21:46:33;99657.59;;;9.40;100.00
32237;BME280;18726;44.732;10.550;2023-03-26T21:49:38;99652.59;;;9.42;100.00
32237;BME280;18726;44.732;10.550;2023-03-26T21:52:41;99646.25;;;9.34;100.00
32237;BME280;18726;44.732;10.550;2023-03-26T22:02:27;99648.53;;;9.32;100.00
32237;BME280;18726;44.732;10.550;2023-03-26T22:05:43;99657.09;;;9.34;100.00
32237;BME280;18726;44.732;10.550;2023-03-26T22:08:50;99652.97;;;9.67;100.00
32237;BME280;18726;44.732;10.550;2023-03-26T22:11:53;99665.91;;;9.54;100.00
32237;BME280;18726;44.732;10.550;2023-03-26T22:14:56;99676.63;;;9.43;100.00